sensor_id;sensor_type;location;lat;lon;timestamp;P1;durP1;ratioP1;P2;durP2;ratioP2
5225;SDS011;2632;51.666;7.146;2023-03-14T00:00:15;9.47;;;1.60;;
5225;SDS011;2632;51.666;7.146;2023-03-14T00:02:42;3.30;;;1.40;;
5225;SDS011;2632;51.666;7.146;2023-03-14T00:05:09;3.70;;;1.50;;
5225;SDS011;2632;51.666;7.146;2023-03-14T00:07:37;1.43;;;1.20;;
5225;SDS011;2632;51.666;7.146;2023-03-14T00:10:06;3.90;;;1.47;;
5225;SDS011;2632;51.666;7.146;2023-03-14T00:12:35;3.57;;;1.20;;
5225;SDS011;2632;51.666;7.146;2023-03-14T00:15:02;3.63;;;1.53;;
5225;SDS011;2632;51.666;7.146;2023-03-14T00:17:30;4.50;;;1.30;;
5225;SDS011;2632;51.666;7.146;2023-03-14T00:19:57;4.70;;;1.57;;
5225;SDS011;2632;51.666;7.146;2023-03-14T00:22:30;5.10;;;2.23;;
5225;SDS011;2632;51.666;7.146;2023-03-14T00:24:57;2.80;;;1.10;;
5225;SDS011;2632;51.666;7.146;2023-03-14T00:27:24;2.40;;;1.47;;
5225;SDS011;2632;51.666;7.146;2023-03-14T00:29:50;2.83;;;1.27;;
5225;SDS011;2632;51.666;7.146;2023-03-14T00:32:17;3.20;;;1.30;;
5225;SDS011;2632;51.666;7.146;2023-03-14T00:34:44;2.80;;;1.30;;
5225;SDS011;2632;51.666;7.146;2023-03-14T00:37:10;7.70;;;1.80;;
5225;SDS011;2632;51.666;7.146;2023-03-14T00:39:37;2.77;;;1.37;;
5225;SDS011;2632;51.666;7.146;2023-03-14T00:42:04;3.03;;;1.17;;
5225;SDS011;2632;51.666;7.146;2023-03-14T00:44:30;2.83;;;1.20;;
5225;SDS011;2632;51.666;7.146;2023-03-14T00:46:57;5.40;;;1.70;;
5225;SDS011;2632;51.666;7.146;2023-03-14T00:49:24;5.30;;;1.60;;
5225;SDS011;2632;51.666;7.146;2023-03-14T00:51:51;5.13;;;1.43;;
5225;SDS011;2632;51.666;7.146;2023-03-14T00:54:19;4.30;;;1.40;;
5225;SDS011;2632;51.666;7.146;2023-03-14T00:56:46;11.13;;;2.00;;
5225;SDS011;2632;51.666;7.146;2023-03-14T00:59:13;4.70;;;1.97;;
5225;SDS011;2632;51.666;7.146;2023-03-14T01:01:41;5.57;;;1.53;;
5225;SDS011;2632;51.666;7.146;2023-03-14T01:04:08;1.67;;;1.20;;
5225;SDS011;2632;51.666;7.146;2023-03-14T01:06:34;2.87;;;1.60;;
5225;SDS011;2632;51.666;7.146;2023-03-14T01:09:01;5.60;;;1.57;;
5225;SDS011;2632;51.666;7.146;2023-03-14T01:11:30;6.63;;;1.53;;
5225;SDS011;2632;51.666;7.146;2023-03-14T01:13:58;8.57;;;1.90;;
5225;SDS011;2632;51.666;7.146;2023-03-14T01:16:26;3.17;;;1.10;;
5225;SDS011;2632;51.666;7.146;2023-03-14T01:18:54;6.23;;;1.70;;
5225;SDS011;2632;51.666;7.146;2023-03-14T01:21:22;3.70;;;1.33;;
5225;SDS011;2632;51.666;7.146;2023-03-14T01:23:50;2.57;;;1.07;;
5225;SDS011;2632;51.666;7.146;2023-03-14T01:26:19;3.90;;;1.30;;
5225;SDS011;2632;51.666;7.146;2023-03-14T01:28:47;2.23;;;0.93;;
5225;SDS011;2632;51.666;7.146;2023-03-14T01:31:15;2.03;;;1.10;;
5225;SDS011;2632;51.666;7.146;2023-03-14T01:33:42;3.67;;;1.00;;
5225;SDS011;2632;51.666;7.146;2023-03-14T01:36:09;2.00;;;0.83;;
5225;SDS011;2632;51.666;7.146;2023-03-14T01:38:37;1.67;;;1.10;;
5225;SDS011;2632;51.666;7.146;2023-03-14T01:41:05;5.47;;;1.30;;
5225;SDS011;2632;51.666;7.146;2023-03-14T01:43:33;3.70;;;1.20;;
5225;SDS011;2632;51.666;7.146;2023-03-14T01:48:33;2.80;;;1.00;;
5225;SDS011;2632;51.666;7.146;2023-03-14T01:51:04;3.10;;;1.00;;
5225;SDS011;2632;51.666;7.146;2023-03-14T01:53:35;3.20;;;1.10;;
5225;SDS011;2632;51.666;7.146;2023-03-14T01:56:03;1.90;;;1.17;;
5225;SDS011;2632;51.666;7.146;2023-03-14T01:58:30;3.47;;;1.00;;
5225;SDS011;2632;51.666;7.146;2023-03-14T02:01:00;2.93;;;1.53;;
5225;SDS011;2632;51.666;7.146;2023-03-14T02:03:29;4.20;;;1.07;;
5225;SDS011;2632;51.666;7.146;2023-03-14T02:06:03;4.83;;;1.20;;
5225;SDS011;2632;51.666;7.146;2023-03-14T02:08:32;5.00;;;0.97;;
5225;SDS011;2632;51.666;7.146;2023-03-14T02:11:01;3.10;;;1.00;;
5225;SDS011;2632;51.666;7.146;2023-03-14T02:13:28;1.97;;;0.90;;
5225;SDS011;2632;51.666;7.146;2023-03-14T02:15:54;4.60;;;1.27;;
5225;SDS011;2632;51.666;7.146;2023-03-14T02:18:21;3.03;;;1.03;;
5225;SDS011;2632;51.666;7.146;2023-03-14T02:20:53;3.03;;;0.90;;
5225;SDS011;2632;51.666;7.146;2023-03-14T02:26:03;2.50;;;0.90;;
5225;SDS011;2632;51.666;7.146;2023-03-14T02:28:36;3.10;;;1.03;;
5225;SDS011;2632;51.666;7.146;2023-03-14T02:31:03;5.67;;;2.07;;
5225;SDS011;2632;51.666;7.146;2023-03-14T02:33:30;4.70;;;1.10;;
5225;SDS011;2632;51.666;7.146;2023-03-14T02:36:01;7.03;;;1.10;;
5225;SDS011;2632;51.666;7.146;2023-03-14T02:41:07;5.00;;;1.40;;
5225;SDS011;2632;51.666;7.146;2023-03-14T02:43:34;4.83;;;1.13;;
5225;SDS011;2632;51.666;7.146;2023-03-14T02:46:01;5.60;;;0.80;;
5225;SDS011;2632;51.666;7.146;2023-03-14T02:48:35;5.30;;;1.10;;
5225;SDS011;2632;51.666;7.146;2023-03-14T02:51:05;4.47;;;1.20;;
5225;SDS011;2632;51.666;7.146;2023-03-14T02:53:34;3.93;;;1.07;;
5225;SDS011;2632;51.666;7.146;2023-03-14T02:56:03;2.40;;;1.00;;
5225;SDS011;2632;51.666;7.146;2023-03-14T02:58:30;1.10;;;0.80;;
5225;SDS011;2632;51.666;7.146;2023-03-14T03:00:57;5.60;;;1.37;;
5225;SDS011;2632;51.666;7.146;2023-03-14T03:03:24;1.43;;;0.90;;
5225;SDS011;2632;51.666;7.146;2023-03-14T03:05:51;4.63;;;0.80;;
5225;SDS011;2632;51.666;7.146;2023-03-14T03:08:19;6.20;;;1.23;;
5225;SDS011;2632;51.666;7.146;2023-03-14T03:10:48;4.07;;;1.20;;
5225;SDS011;2632;51.666;7.146;2023-03-14T03:13:15;3.90;;;0.90;;
5225;SDS011;2632;51.666;7.146;2023-03-14T03:15:42;7.27;;;1.30;;
5225;SDS011;2632;51.666;7.146;2023-03-14T03:18:09;5.03;;;0.90;;
5225;SDS011;2632;51.666;7.146;2023-03-14T03:20:36;5.00;;;1.00;;
5225;SDS011;2632;51.666;7.146;2023-03-14T03:23:06;7.13;;;1.43;;
5225;SDS011;2632;51.666;7.146;2023-03-14T03:25:32;9.93;;;1.70;;
5225;SDS011;2632;51.666;7.146;2023-03-14T03:27:59;6.90;;;1.60;;
5225;SDS011;2632;51.666;7.146;2023-03-14T03:30:26;5.60;;;1.17;;
5225;SDS011;2632;51.666;7.146;2023-03-14T03:32:53;5.27;;;1.20;;
5225;SDS011;2632;51.666;7.146;2023-03-14T03:35:21;4.97;;;1.50;;
5225;SDS011;2632;51.666;7.146;2023-03-14T03:37:48;6.47;;;1.20;;
5225;SDS011;2632;51.666;7.146;2023-03-14T03:40:14;4.03;;;1.50;;
5225;SDS011;2632;51.666;7.146;2023-03-14T03:42:41;6.10;;;2.07;;
5225;SDS011;2632;51.666;7.146;2023-03-14T03:45:08;2.90;;;1.50;;
5225;SDS011;2632;51.666;7.146;2023-03-14T03:47:34;5.07;;;2.13;;
5225;SDS011;2632;51.666;7.146;2023-03-14T03:50:01;2.40;;;1.43;;
5225;SDS011;2632;51.666;7.146;2023-03-14T03:52:28;10.13;;;1.70;;
5225;SDS011;2632;51.666;7.146;2023-03-14T03:54:55;4.20;;;1.23;;
5225;SDS011;2632;51.666;7.146;2023-03-14T03:57:21;3.00;;;1.20;;
5225;SDS011;2632;51.666;7.146;2023-03-14T03:59:48;5.77;;;1.10;;
5225;SDS011;2632;51.666;7.146;2023-03-14T04:02:15;2.77;;;0.80;;
5225;SDS011;2632;51.666;7.146;2023-03-14T04:04:42;6.20;;;1.73;;
5225;SDS011;2632;51.666;7.146;2023-03-14T04:07:08;10.23;;;1.30;;
5225;SDS011;2632;51.666;7.146;2023-03-14T04:09:37;3.43;;;0.90;;
5225;SDS011;2632;51.666;7.146;2023-03-14T04:12:04;4.17;;;1.20;;
5225;SDS011;2632;51.666;7.146;2023-03-14T04:14:30;7.90;;;1.20;;
5225;SDS011;2632;51.666;7.146;2023-03-14T04:16:57;5.27;;;1.00;;
5225;SDS011;2632;51.666;7.146;2023-03-14T04:19:24;5.27;;;1.50;;
5225;SDS011;2632;51.666;7.146;2023-03-14T04:21:50;5.10;;;1.10;;
5225;SDS011;2632;51.666;7.146;2023-03-14T04:24:17;3.53;;;1.87;;
5225;SDS011;2632;51.666;7.146;2023-03-14T04:26:43;7.07;;;1.30;;
5225;SDS011;2632;51.666;7.146;2023-03-14T04:29:10;11.37;;;2.00;;
5225;SDS011;2632;51.666;7.146;2023-03-14T04:31:38;6.47;;;1.67;;
5225;SDS011;2632;51.666;7.146;2023-03-14T04:34:05;4.43;;;1.40;;
5225;SDS011;2632;51.666;7.146;2023-03-14T04:36:32;3.60;;;1.60;;
5225;SDS011;2632;51.666;7.146;2023-03-14T04:38:58;11.03;;;1.67;;
5225;SDS011;2632;51.666;7.146;2023-03-14T04:41:25;5.63;;;1.10;;
5225;SDS011;2632;51.666;7.146;2023-03-14T04:43:52;6.13;;;1.30;;
5225;SDS011;2632;51.666;7.146;2023-03-14T04:46:18;3.70;;;0.70;;
5225;SDS011;2632;51.666;7.146;2023-03-14T04:48:45;2.60;;;1.17;;
5225;SDS011;2632;51.666;7.146;2023-03-14T04:51:11;2.87;;;1.00;;
5225;SDS011;2632;51.666;7.146;2023-03-14T04:53:38;3.30;;;0.90;;
5225;SDS011;2632;51.666;7.146;2023-03-14T04:56:05;4.87;;;1.03;;
5225;SDS011;2632;51.666;7.146;2023-03-14T04:58:32;3.60;;;0.90;;
5225;SDS011;2632;51.666;7.146;2023-03-14T05:01:02;1.60;;;0.80;;
5225;SDS011;2632;51.666;7.146;2023-03-14T05:03:30;2.83;;;0.90;;
5225;SDS011;2632;51.666;7.146;2023-03-14T05:05:56;1.07;;;0.67;;
5225;SDS011;2632;51.666;7.146;2023-03-14T05:08:24;2.20;;;0.60;;
5225;SDS011;2632;51.666;7.146;2023-03-14T05:10:52;1.40;;;0.57;;
5225;SDS011;2632;51.666;7.146;2023-03-14T05:13:19;4.70;;;0.67;;
5225;SDS011;2632;51.666;7.146;2023-03-14T05:15:46;3.73;;;0.60;;
5225;SDS011;2632;51.666;7.146;2023-03-14T05:18:13;3.13;;;0.83;;
5225;SDS011;2632;51.666;7.146;2023-03-14T05:20:39;1.73;;;0.70;;
5225;SDS011;2632;51.666;7.146;2023-03-14T05:23:06;1.93;;;0.67;;
5225;SDS011;2632;51.666;7.146;2023-03-14T05:25:33;1.93;;;1.00;;
5225;SDS011;2632;51.666;7.146;2023-03-14T05:28:02;4.93;;;1.27;;
5225;SDS011;2632;51.666;7.146;2023-03-14T05:30:29;1.37;;;0.70;;
5225;SDS011;2632;51.666;7.146;2023-03-14T05:32:56;1.27;;;0.50;;
5225;SDS011;2632;51.666;7.146;2023-03-14T05:35:23;2.37;;;0.50;;
5225;SDS011;2632;51.666;7.146;2023-03-14T05:37:50;1.93;;;0.80;;
5225;SDS011;2632;51.666;7.146;2023-03-14T05:40:16;1.80;;;0.63;;
5225;SDS011;2632;51.666;7.146;2023-03-14T05:42:43;0.83;;;0.73;;
5225;SDS011;2632;51.666;7.146;2023-03-14T05:45:10;1.47;;;0.80;;
5225;SDS011;2632;51.666;7.146;2023-03-14T05:47:37;3.83;;;0.80;;
5225;SDS011;2632;51.666;7.146;2023-03-14T05:50:03;3.10;;;1.10;;
5225;SDS011;2632;51.666;7.146;2023-03-14T05:52:30;1.77;;;0.90;;
5225;SDS011;2632;51.666;7.146;2023-03-14T05:54:57;1.60;;;0.83;;
5225;SDS011;2632;51.666;7.146;2023-03-14T05:57:23;2.40;;;1.50;;
5225;SDS011;2632;51.666;7.146;2023-03-14T05:59:50;1.57;;;1.37;;
5225;SDS011;2632;51.666;7.146;2023-03-14T06:02:17;3.67;;;1.13;;
5225;SDS011;2632;51.666;7.146;2023-03-14T06:04:43;4.70;;;1.80;;
5225;SDS011;2632;51.666;7.146;2023-03-14T06:07:10;3.13;;;1.33;;
5225;SDS011;2632;51.666;7.146;2023-03-14T06:09:37;2.73;;;1.27;;
5225;SDS011;2632;51.666;7.146;2023-03-14T06:12:05;3.03;;;1.47;;
5225;SDS011;2632;51.666;7.146;2023-03-14T06:14:32;3.90;;;1.73;;
5225;SDS011;2632;51.666;7.146;2023-03-14T06:16:58;3.77;;;1.57;;
5225;SDS011;2632;51.666;7.146;2023-03-14T06:19:25;4.73;;;2.20;;
5225;SDS011;2632;51.666;7.146;2023-03-14T06:21:52;3.20;;;2.20;;
5225;SDS011;2632;51.666;7.146;2023-03-14T06:24:19;4.63;;;2.40;;
5225;SDS011;2632;51.666;7.146;2023-03-14T06:26:45;7.03;;;3.03;;
5225;SDS011;2632;51.666;7.146;2023-03-14T06:29:12;5.80;;;3.23;;
5225;SDS011;2632;51.666;7.146;2023-03-14T06:31:39;4.63;;;3.07;;
5225;SDS011;2632;51.666;7.146;2023-03-14T06:34:06;5.20;;;3.33;;
5225;SDS011;2632;51.666;7.146;2023-03-14T06:36:32;5.80;;;3.83;;
5225;SDS011;2632;51.666;7.146;2023-03-14T06:38:59;5.30;;;3.60;;
5225;SDS011;2632;51.666;7.146;2023-03-14T06:41:26;9.00;;;3.20;;
5225;SDS011;2632;51.666;7.146;2023-03-14T06:43:52;15.53;;;3.47;;
5225;SDS011;2632;51.666;7.146;2023-03-14T06:46:21;4.00;;;3.03;;
5225;SDS011;2632;51.666;7.146;2023-03-14T06:48:48;4.90;;;2.83;;
5225;SDS011;2632;51.666;7.146;2023-03-14T06:51:15;4.80;;;3.13;;
5225;SDS011;2632;51.666;7.146;2023-03-14T06:53:42;4.63;;;3.17;;
5225;SDS011;2632;51.666;7.146;2023-03-14T06:56:08;3.77;;;2.90;;
5225;SDS011;2632;51.666;7.146;2023-03-14T06:58:35;5.03;;;3.33;;
5225;SDS011;2632;51.666;7.146;2023-03-14T07:01:02;6.63;;;3.87;;
5225;SDS011;2632;51.666;7.146;2023-03-14T07:03:28;6.30;;;3.83;;
5225;SDS011;2632;51.666;7.146;2023-03-14T07:05:55;6.00;;;4.07;;
5225;SDS011;2632;51.666;7.146;2023-03-14T07:08:22;6.40;;;4.00;;
5225;SDS011;2632;51.666;7.146;2023-03-14T07:10:49;4.90;;;3.40;;
5225;SDS011;2632;51.666;7.146;2023-03-14T07:13:15;6.10;;;3.67;;
5225;SDS011;2632;51.666;7.146;2023-03-14T07:15:42;5.53;;;3.30;;
5225;SDS011;2632;51.666;7.146;2023-03-14T07:18:09;4.17;;;2.83;;
5225;SDS011;2632;51.666;7.146;2023-03-14T07:20:35;4.63;;;3.03;;
5225;SDS011;2632;51.666;7.146;2023-03-14T07:23:02;4.57;;;2.97;;
5225;SDS011;2632;51.666;7.146;2023-03-14T07:25:29;5.13;;;3.10;;
5225;SDS011;2632;51.666;7.146;2023-03-14T07:28:05;3.97;;;2.97;;
5225;SDS011;2632;51.666;7.146;2023-03-14T07:30:35;3.63;;;2.80;;
5225;SDS011;2632;51.666;7.146;2023-03-14T07:33:01;6.97;;;3.63;;
5225;SDS011;2632;51.666;7.146;2023-03-14T07:35:28;4.50;;;3.43;;
5225;SDS011;2632;51.666;7.146;2023-03-14T07:37:54;4.00;;;3.20;;
5225;SDS011;2632;51.666;7.146;2023-03-14T07:40:21;4.80;;;3.30;;
5225;SDS011;2632;51.666;7.146;2023-03-14T07:42:47;3.23;;;2.90;;
5225;SDS011;2632;51.666;7.146;2023-03-14T07:45:15;4.80;;;3.00;;
5225;SDS011;2632;51.666;7.146;2023-03-14T07:47:43;4.67;;;3.17;;
5225;SDS011;2632;51.666;7.146;2023-03-14T07:50:10;3.93;;;3.13;;
5225;SDS011;2632;51.666;7.146;2023-03-14T07:52:36;4.93;;;3.03;;
5225;SDS011;2632;51.666;7.146;2023-03-14T07:55:03;5.63;;;3.70;;
5225;SDS011;2632;51.666;7.146;2023-03-14T07:57:30;5.17;;;3.60;;
5225;SDS011;2632;51.666;7.146;2023-03-14T07:59:57;7.17;;;3.77;;
5225;SDS011;2632;51.666;7.146;2023-03-14T08:02:24;4.83;;;3.60;;
5225;SDS011;2632;51.666;7.146;2023-03-14T08:04:55;6.57;;;3.57;;
5225;SDS011;2632;51.666;7.146;2023-03-14T08:07:48;11.93;;;3.93;;
5225;SDS011;2632;51.666;7.146;2023-03-14T08:10:26;4.83;;;3.70;;
5225;SDS011;2632;51.666;7.146;2023-03-14T08:13:01;5.50;;;3.90;;
5225;SDS011;2632;51.666;7.146;2023-03-14T08:15:37;6.97;;;4.50;;
5225;SDS011;2632;51.666;7.146;2023-03-14T08:18:08;5.37;;;4.00;;
5225;SDS011;2632;51.666;7.146;2023-03-14T08:20:43;3.90;;;3.30;;
5225;SDS011;2632;51.666;7.146;2023-03-14T08:23:09;4.13;;;3.30;;
5225;SDS011;2632;51.666;7.146;2023-03-14T08:25:37;6.50;;;4.40;;
5225;SDS011;2632;51.666;7.146;2023-03-14T08:28:04;7.63;;;4.87;;
5225;SDS011;2632;51.666;7.146;2023-03-14T08:30:30;6.30;;;4.23;;
5225;SDS011;2632;51.666;7.146;2023-03-14T08:32:57;7.50;;;4.83;;
5225;SDS011;2632;51.666;7.146;2023-03-14T08:35:24;7.73;;;5.00;;
5225;SDS011;2632;51.666;7.146;2023-03-14T08:37:52;7.60;;;4.87;;
5225;SDS011;2632;51.666;7.146;2023-03-14T08:40:19;8.30;;;5.40;;
5225;SDS011;2632;51.666;7.146;2023-03-14T08:42:45;7.70;;;5.23;;
5225;SDS011;2632;51.666;7.146;2023-03-14T08:45:13;9.80;;;6.13;;
5225;SDS011;2632;51.666;7.146;2023-03-14T08:47:43;7.30;;;5.20;;
5225;SDS011;2632;51.666;7.146;2023-03-14T08:50:10;9.40;;;5.73;;
5225;SDS011;2632;51.666;7.146;2023-03-14T08:52:41;8.27;;;5.67;;
5225;SDS011;2632;51.666;7.146;2023-03-14T08:55:08;7.13;;;5.77;;
5225;SDS011;2632;51.666;7.146;2023-03-14T08:57:35;6.10;;;4.67;;
5225;SDS011;2632;51.666;7.146;2023-03-14T09:00:03;7.73;;;4.50;;
5225;SDS011;2632;51.666;7.146;2023-03-14T09:02:37;5.87;;;4.00;;
5225;SDS011;2632;51.666;7.146;2023-03-14T09:05:04;3.60;;;2.60;;
5225;SDS011;2632;51.666;7.146;2023-03-14T09:07:31;3.73;;;2.40;;
5225;SDS011;2632;51.666;7.146;2023-03-14T09:09:58;2.80;;;2.27;;
5225;SDS011;2632;51.666;7.146;2023-03-14T09:12:24;2.10;;;1.90;;
5225;SDS011;2632;51.666;7.146;2023-03-14T09:14:51;2.23;;;1.80;;
5225;SDS011;2632;51.666;7.146;2023-03-14T09:17:18;1.97;;;1.60;;
5225;SDS011;2632;51.666;7.146;2023-03-14T09:19:44;1.40;;;1.07;;
5225;SDS011;2632;51.666;7.146;2023-03-14T09:22:11;4.97;;;1.20;;
5225;SDS011;2632;51.666;7.146;2023-03-14T09:24:37;4.10;;;0.90;;
5225;SDS011;2632;51.666;7.146;2023-03-14T09:27:05;0.80;;;0.60;;
5225;SDS011;2632;51.666;7.146;2023-03-14T09:29:33;0.70;;;0.60;;
5225;SDS011;2632;51.666;7.146;2023-03-14T09:32:00;1.37;;;0.70;;
5225;SDS011;2632;51.666;7.146;2023-03-14T09:34:26;0.70;;;0.53;;
5225;SDS011;2632;51.666;7.146;2023-03-14T09:36:53;0.73;;;0.60;;
5225;SDS011;2632;51.666;7.146;2023-03-14T09:39:20;0.50;;;0.40;;
5225;SDS011;2632;51.666;7.146;2023-03-14T09:41:47;0.60;;;0.50;;
5225;SDS011;2632;51.666;7.146;2023-03-14T09:44:18;0.87;;;0.60;;
5225;SDS011;2632;51.666;7.146;2023-03-14T09:46:53;1.00;;;0.50;;
5225;SDS011;2632;51.666;7.146;2023-03-14T09:49:24;0.80;;;0.47;;
5225;SDS011;2632;51.666;7.146;2023-03-14T09:51:53;0.80;;;0.40;;
5225;SDS011;2632;51.666;7.146;2023-03-14T09:54:34;0.70;;;0.60;;
5225;SDS011;2632;51.666;7.146;2023-03-14T09:57:04;0.97;;;0.50;;
5225;SDS011;2632;51.666;7.146;2023-03-14T09:59:32;0.53;;;0.50;;
5225;SDS011;2632;51.666;7.146;2023-03-14T10:02:01;4.63;;;0.73;;
5225;SDS011;2632;51.666;7.146;2023-03-14T10:04:48;0.50;;;0.50;;
5225;SDS011;2632;51.666;7.146;2023-03-14T10:07:16;0.70;;;0.60;;
5225;SDS011;2632;51.666;7.146;2023-03-14T10:09:51;0.50;;;0.40;;
5225;SDS011;2632;51.666;7.146;2023-03-14T10:12:18;0.80;;;0.60;;
5225;SDS011;2632;51.666;7.146;2023-03-14T10:14:47;1.20;;;0.43;;
5225;SDS011;2632;51.666;7.146;2023-03-14T10:17:15;0.87;;;0.50;;
5225;SDS011;2632;51.666;7.146;2023-03-14T10:19:58;0.80;;;0.80;;
5225;SDS011;2632;51.666;7.146;2023-03-14T10:22:27;2.70;;;0.87;;
5225;SDS011;2632;51.666;7.146;2023-03-14T10:24:57;1.10;;;0.50;;
5225;SDS011;2632;51.666;7.146;2023-03-14T10:27:29;1.50;;;0.90;;
5225;SDS011;2632;51.666;7.146;2023-03-14T10:30:00;3.43;;;0.80;;
5225;SDS011;2632;51.666;7.146;2023-03-14T10:32:50;1.60;;;1.03;;
5225;SDS011;2632;51.666;7.146;2023-03-14T10:37:58;2.90;;;0.70;;
5225;SDS011;2632;51.666;7.146;2023-03-14T10:40:28;1.57;;;0.90;;
5225;SDS011;2632;51.666;7.146;2023-03-14T10:42:58;1.40;;;1.20;;
5225;SDS011;2632;51.666;7.146;2023-03-14T10:48:51;2.53;;;0.70;;
5225;SDS011;2632;51.666;7.146;2023-03-14T10:50:56;0.60;;;0.60;;
5225;SDS011;2632;51.666;7.146;2023-03-14T10:53:49;0.90;;;0.50;;
5225;SDS011;2632;51.666;7.146;2023-03-14T10:56:22;0.50;;;0.50;;
5225;SDS011;2632;51.666;7.146;2023-03-14T10:58:52;0.50;;;0.50;;
5225;SDS011;2632;51.666;7.146;2023-03-14T11:01:39;2.40;;;0.50;;
5225;SDS011;2632;51.666;7.146;2023-03-14T11:07:14;0.90;;;0.50;;
5225;SDS011;2632;51.666;7.146;2023-03-14T11:10:09;1.33;;;0.60;;
5225;SDS011;2632;51.666;7.146;2023-03-14T11:12:55;2.70;;;0.50;;
5225;SDS011;2632;51.666;7.146;2023-03-14T11:15:32;0.70;;;0.60;;
5225;SDS011;2632;51.666;7.146;2023-03-14T11:18:19;0.60;;;0.60;;
5225;SDS011;2632;51.666;7.146;2023-03-14T11:26:55;1.80;;;0.67;;
5225;SDS011;2632;51.666;7.146;2023-03-14T11:29:45;1.73;;;0.60;;
5225;SDS011;2632;51.666;7.146;2023-03-14T11:35:19;1.00;;;0.70;;
5225;SDS011;2632;51.666;7.146;2023-03-14T11:37:54;0.60;;;0.60;;
5225;SDS011;2632;51.666;7.146;2023-03-14T11:40:27;4.33;;;1.90;;
5225;SDS011;2632;51.666;7.146;2023-03-14T11:43:16;2.20;;;0.70;;
5225;SDS011;2632;51.666;7.146;2023-03-14T11:45:43;1.23;;;1.13;;
5225;SDS011;2632;51.666;7.146;2023-03-14T11:50:42;1.00;;;0.90;;
5225;SDS011;2632;51.666;7.146;2023-03-14T11:53:14;2.80;;;0.87;;
5225;SDS011;2632;51.666;7.146;2023-03-14T11:55:45;1.83;;;1.00;;
5225;SDS011;2632;51.666;7.146;2023-03-14T11:58:15;3.20;;;1.27;;
5225;SDS011;2632;51.666;7.146;2023-03-14T12:00:48;1.90;;;0.70;;
5225;SDS011;2632;51.666;7.146;2023-03-14T12:03:20;1.20;;;0.80;;
5225;SDS011;2632;51.666;7.146;2023-03-14T12:06:24;2.53;;;0.80;;
5225;SDS011;2632;51.666;7.146;2023-03-14T12:09:00;1.93;;;0.90;;
5225;SDS011;2632;51.666;7.146;2023-03-14T12:11:38;3.47;;;1.00;;
5225;SDS011;2632;51.666;7.146;2023-03-14T12:14:35;3.73;;;0.90;;
5225;SDS011;2632;51.666;7.146;2023-03-14T12:19:47;2.17;;;0.73;;
5225;SDS011;2632;51.666;7.146;2023-03-14T12:22:29;2.40;;;1.10;;
5225;SDS011;2632;51.666;7.146;2023-03-14T12:25:06;2.03;;;0.60;;
5225;SDS011;2632;51.666;7.146;2023-03-14T12:35:44;5.60;;;1.20;;
5225;SDS011;2632;51.666;7.146;2023-03-14T12:38:16;4.13;;;0.90;;
5225;SDS011;2632;51.666;7.146;2023-03-14T12:43:40;1.63;;;0.70;;
5225;SDS011;2632;51.666;7.146;2023-03-14T12:46:08;4.67;;;1.30;;
5225;SDS011;2632;51.666;7.146;2023-03-14T12:51:36;4.43;;;1.47;;
5225;SDS011;2632;51.666;7.146;2023-03-14T12:54:11;11.67;;;3.07;;
5225;SDS011;2632;51.666;7.146;2023-03-14T12:59:55;8.33;;;1.70;;
5225;SDS011;2632;51.666;7.146;2023-03-14T13:02:28;8.30;;;1.90;;
5225;SDS011;2632;51.666;7.146;2023-03-14T13:05:20;5.73;;;1.43;;
5225;SDS011;2632;51.666;7.146;2023-03-14T13:10:24;3.23;;;1.40;;
5225;SDS011;2632;51.666;7.146;2023-03-14T13:13:11;6.03;;;1.30;;
5225;SDS011;2632;51.666;7.146;2023-03-14T13:15:46;9.07;;;1.90;;
5225;SDS011;2632;51.666;7.146;2023-03-14T13:21:09;5.90;;;1.50;;
5225;SDS011;2632;51.666;7.146;2023-03-14T13:23:41;13.23;;;1.87;;
5225;SDS011;2632;51.666;7.146;2023-03-14T13:26:39;9.33;;;1.90;;
5225;SDS011;2632;51.666;7.146;2023-03-14T13:29:28;5.70;;;2.23;;
5225;SDS011;2632;51.666;7.146;2023-03-14T13:32:02;6.90;;;1.60;;
5225;SDS011;2632;51.666;7.146;2023-03-14T13:34:42;7.27;;;1.43;;
5225;SDS011;2632;51.666;7.146;2023-03-14T13:37:15;15.30;;;2.50;;
5225;SDS011;2632;51.666;7.146;2023-03-14T13:39:52;12.50;;;2.57;;
5225;SDS011;2632;51.666;7.146;2023-03-14T13:42:24;6.50;;;1.90;;
5225;SDS011;2632;51.666;7.146;2023-03-14T13:44:55;11.93;;;2.30;;
5225;SDS011;2632;51.666;7.146;2023-03-14T13:47:23;6.33;;;1.70;;
5225;SDS011;2632;51.666;7.146;2023-03-14T13:49:51;8.17;;;2.03;;
5225;SDS011;2632;51.666;7.146;2023-03-14T13:52:32;9.07;;;2.00;;
5225;SDS011;2632;51.666;7.146;2023-03-14T13:55:03;6.10;;;2.00;;
5225;SDS011;2632;51.666;7.146;2023-03-14T13:57:51;9.00;;;2.40;;
5225;SDS011;2632;51.666;7.146;2023-03-14T14:00:23;4.03;;;1.30;;
5225;SDS011;2632;51.666;7.146;2023-03-14T14:02:56;7.27;;;1.20;;
5225;SDS011;2632;51.666;7.146;2023-03-14T14:05:28;9.87;;;2.10;;
5225;SDS011;2632;51.666;7.146;2023-03-14T14:07:57;11.30;;;1.70;;
5225;SDS011;2632;51.666;7.146;2023-03-14T14:10:25;11.30;;;1.40;;
5225;SDS011;2632;51.666;7.146;2023-03-14T14:12:59;6.20;;;1.37;;
5225;SDS011;2632;51.666;7.146;2023-03-14T14:15:29;10.80;;;1.67;;
5225;SDS011;2632;51.666;7.146;2023-03-14T14:18:02;7.30;;;1.33;;
5225;SDS011;2632;51.666;7.146;2023-03-14T14:20:36;4.00;;;1.23;;
5225;SDS011;2632;51.666;7.146;2023-03-14T14:23:09;3.67;;;1.10;;
5225;SDS011;2632;51.666;7.146;2023-03-14T14:25:38;6.53;;;1.10;;
5225;SDS011;2632;51.666;7.146;2023-03-14T14:30:59;6.40;;;1.60;;
5225;SDS011;2632;51.666;7.146;2023-03-14T14:33:30;7.77;;;1.13;;
5225;SDS011;2632;51.666;7.146;2023-03-14T14:36:11;4.67;;;0.90;;
5225;SDS011;2632;51.666;7.146;2023-03-14T14:38:42;5.83;;;0.93;;
5225;SDS011;2632;51.666;7.146;2023-03-14T14:41:15;5.00;;;1.20;;
5225;SDS011;2632;51.666;7.146;2023-03-14T14:43:44;4.30;;;1.17;;
5225;SDS011;2632;51.666;7.146;2023-03-14T14:46:13;9.97;;;1.60;;
5225;SDS011;2632;51.666;7.146;2023-03-14T14:48:43;8.73;;;2.20;;
5225;SDS011;2632;51.666;7.146;2023-03-14T14:51:10;3.13;;;1.10;;
5225;SDS011;2632;51.666;7.146;2023-03-14T14:53:40;5.33;;;1.27;;
5225;SDS011;2632;51.666;7.146;2023-03-14T14:56:27;8.37;;;1.30;;
5225;SDS011;2632;51.666;7.146;2023-03-14T14:58:57;3.93;;;1.20;;
5225;SDS011;2632;51.666;7.146;2023-03-14T15:01:36;7.33;;;2.13;;
5225;SDS011;2632;51.666;7.146;2023-03-14T15:04:12;8.47;;;1.50;;
5225;SDS011;2632;51.666;7.146;2023-03-14T15:06:42;7.93;;;1.07;;
5225;SDS011;2632;51.666;7.146;2023-03-14T15:09:11;8.93;;;2.70;;
5225;SDS011;2632;51.666;7.146;2023-03-14T15:11:38;4.97;;;1.20;;
5225;SDS011;2632;51.666;7.146;2023-03-14T15:14:05;5.27;;;1.53;;
5225;SDS011;2632;51.666;7.146;2023-03-14T15:16:32;5.73;;;1.10;;
5225;SDS011;2632;51.666;7.146;2023-03-14T15:19:00;2.40;;;1.00;;
5225;SDS011;2632;51.666;7.146;2023-03-14T15:21:46;4.73;;;1.00;;
5225;SDS011;2632;51.666;7.146;2023-03-14T15:24:13;8.43;;;1.80;;
5225;SDS011;2632;51.666;7.146;2023-03-14T15:26:41;5.17;;;0.80;;
5225;SDS011;2632;51.666;7.146;2023-03-14T15:29:10;3.13;;;0.80;;
5225;SDS011;2632;51.666;7.146;2023-03-14T15:31:39;7.77;;;1.50;;
5225;SDS011;2632;51.666;7.146;2023-03-14T15:34:06;5.63;;;0.87;;
5225;SDS011;2632;51.666;7.146;2023-03-14T15:36:33;2.80;;;0.80;;
5225;SDS011;2632;51.666;7.146;2023-03-14T15:39:02;4.70;;;1.00;;
5225;SDS011;2632;51.666;7.146;2023-03-14T15:41:30;3.17;;;1.07;;
5225;SDS011;2632;51.666;7.146;2023-03-14T15:43:57;4.83;;;1.40;;
5225;SDS011;2632;51.666;7.146;2023-03-14T15:46:24;3.90;;;0.90;;
5225;SDS011;2632;51.666;7.146;2023-03-14T15:48:51;2.30;;;0.63;;
5225;SDS011;2632;51.666;7.146;2023-03-14T15:51:18;4.30;;;0.80;;
5225;SDS011;2632;51.666;7.146;2023-03-14T15:53:45;8.63;;;0.90;;
5225;SDS011;2632;51.666;7.146;2023-03-14T15:56:16;1.87;;;0.80;;
5225;SDS011;2632;51.666;7.146;2023-03-14T15:58:44;2.23;;;0.67;;
5225;SDS011;2632;51.666;7.146;2023-03-14T16:01:15;1.67;;;0.63;;
5225;SDS011;2632;51.666;7.146;2023-03-14T16:03:43;3.87;;;1.60;;
5225;SDS011;2632;51.666;7.146;2023-03-14T16:06:11;3.00;;;1.13;;
5225;SDS011;2632;51.666;7.146;2023-03-14T16:08:38;3.13;;;1.40;;
5225;SDS011;2632;51.666;7.146;2023-03-14T16:11:05;2.70;;;0.70;;
5225;SDS011;2632;51.666;7.146;2023-03-14T16:13:32;6.47;;;1.37;;
5225;SDS011;2632;51.666;7.146;2023-03-14T16:15:59;4.33;;;0.70;;
5225;SDS011;2632;51.666;7.146;2023-03-14T16:18:28;2.97;;;1.17;;
5225;SDS011;2632;51.666;7.146;2023-03-14T16:20:57;3.00;;;0.80;;
5225;SDS011;2632;51.666;7.146;2023-03-14T16:23:26;5.20;;;1.20;;
5225;SDS011;2632;51.666;7.146;2023-03-14T16:25:54;3.57;;;1.00;;